Hornepayne, Canada
Current Conditions -  °F | °C
As of 8:00 PM on Friday 24 Oct 2014 (Local Time) from CYXZ Reporting Station
Haze Haze  
Wind Chill: 44°   Ceiling: 600
Heat Index: 46°   Visibility: 2.5mi
Dew Point: 46°   Wind: 6mph
Humidity: 100%   Direction: 200°SSW
Pressure: 29.8"   Gusts: NA
Location:  49.22°N, 84.78°W
Report Text: CYXZ 250000Z 20005KT 2 1/2SM BR OVC006 08/08 A2980 RMK ST8 SLP101
Loading
Personal Weather Stations






























Interactive Weather Map New forecast layout! Learn more

10-Day Weather Forecast

Advertisements
Track Severe Weather on mobile